Time;durP1;ratioP1;P1;durP2;ratioP2;P2;SDS_P1;SDS_P2;PMS_P1;PMS_P2;Temp;Humidity;BMP_temperature;BMP_pressure;BME280_temperature;BME280_humidity;BME280_pressure;Samples;Min_cycle;Max_cycle;Signal;HPM_P1;HPM_P2
2021/01/22 00:01:06;;;;;;;54.15;50.25;;;;;;;12.08;40.92;99548.91;4421128;32;34182;-84
2021/01/22 00:03:34;;;;;;;55.45;51.35;;;;;;;12.49;39.38;99546.34;4421112;32;33515;-85
2021/01/22 00:06:01;;;;;;;54.90;50.97;;;;;;;12.60;38.94;99540.69;4408315;32;34558;-85
2021/01/22 00:08:28;;;;;;;54.47;50.67;;;;;;;12.24;39.77;99539.53;4421154;32;33571;-84
2021/01/22 00:10:55;;;;;;;55.65;51.50;;;;;;;11.60;41.66;99541.16;4395453;32;35605;-85
2021/01/22 00:13:22;;;;;;;54.38;50.12;;;;;;;12.24;40.26;99539.53;4421242;32;33057;-84
2021/01/22 00:15:50;;;;;;;54.30;50.10;;;;;;;12.25;39.86;99533.41;4421241;32;33702;-84
2021/01/22 00:18:17;;;;;;;55.30;51.35;;;;;;;12.90;38.51;99530.66;4408543;32;34131;-84
2021/01/22 00:20:44;;;;;;;56.22;51.90;;;;;;;11.24;42.52;99525.12;4408475;32;34586;-86
2021/01/22 00:23:11;;;;;;;55.80;51.95;;;;;;;10.31;44.67;99529.16;4434187;32;33331;-83
2021/01/22 00:25:39;;;;;;;54.95;51.05;;;;;;;9.26;47.24;99531.56;4423373;32;33887;-84
2021/01/22 00:28:06;;;;;;;57.15;52.83;;;;;;;9.74;46.06;99517.16;4426795;32;33658;-83
2021/01/22 00:30:33;;;;;;;58.67;53.97;;;;;;;9.93;45.96;99528.69;4420715;32;33420;-84
2021/01/22 00:33:00;;;;;;;55.67;51.37;;;;;;;10.91;43.96;99517.62;4433399;32;34285;-84
2021/01/22 00:35:28;;;;;;;56.78;52.70;;;;;;;11.05;43.07;99514.50;4433064;32;33768;-83
2021/01/22 00:37:55;;;;;;;56.55;52.33;;;;;;;11.27;41.97;99514.56;4420892;32;33850;-84
2021/01/22 00:40:23;;;;;;;56.47;52.28;;;;;;;11.70;41.08;99513.78;4382763;32;32841;-85
2021/01/22 00:42:50;;;;;;;56.33;52.15;;;;;;;11.74;41.20;99513.66;4420492;32;33750;-86
2021/01/22 00:45:17;;;;;;;55.83;51.63;;;;;;;11.95;40.89;99504.16;4395245;32;33843;-84
2021/01/22 00:47:44;;;;;;;55.38;51.25;;;;;;;12.26;40.65;99508.97;4414986;32;33936;-86
2021/01/22 00:50:12;;;;;;;56.33;51.97;;;;;;;12.45;40.21;99495.16;4421480;32;33863;-85
2021/01/22 00:52:39;;;;;;;55.80;51.70;;;;;;;12.34;40.51;99490.37;4420118;32;33695;-85
2021/01/22 00:55:07;;;;;;;55.15;51.45;;;;;;;12.39;40.34;99496.25;4420243;32;33768;-85
2021/01/22 00:57:38;;;;;;;56.15;52.00;;;;;;;12.93;39.23;99491.28;4420103;32;33767;-86
2021/01/22 01:00:08;;;;;;;56.25;52.00;;;;;;;12.09;40.52;99487.94;4433028;32;34358;-85
2021/01/22 01:02:37;;;;;;;54.88;50.65;;;;;;;11.91;41.27;99489.50;4420726;32;32966;-86
2021/01/22 01:05:06;;;;;;;53.97;50.35;;;;;;;11.35;42.97;99482.09;4407491;32;34707;-85
2021/01/22 01:07:34;;;;;;;54.85;51.08;;;;;;;12.01;41.39;99476.03;4407387;32;34689;-85
2021/01/22 01:10:06;;;;;;;54.08;50.30;;;;;;;11.31;43.27;99472.66;4432588;32;33610;-84
2021/01/22 01:12:36;;;;;;;54.15;50.33;;;;;;;12.01;41.77;99476.03;4407535;32;34003;-86
2021/01/22 01:15:06;;;;;;;55.83;51.75;;;;;;;12.84;40.18;99462.94;4407429;32;32775;-84
2021/01/22 01:17:35;;;;;;;53.92;50.22;;;;;;;12.91;39.82;99471.34;4420014;32;33850;-85
2021/01/22 01:20:04;;;;;;;54.53;50.78;;;;;;;12.21;41.19;99457.84;4419761;32;33641;-84
2021/01/22 01:22:33;;;;;;;54.92;51.15;;;;;;;11.05;43.74;99457.16;4420217;32;33744;-85
2021/01/22 01:25:00;;;;;;;55.42;51.47;;;;;;;10.44;45.49;99458.50;4422190;32;33657;-84
2021/01/22 01:27:27;;;;;;;55.17;51.28;;;;;;;10.33;45.47;99451.00;4423288;32;33895;-84
2021/01/22 01:29:55;;;;;;;54.33;50.53;;;;;;;10.72;44.88;99449.69;4423300;32;34810;-84
2021/01/22 01:32:22;;;;;;;56.13;51.92;;;;;;;10.40;46.10;99446.44;4434828;32;34604;-84
2021/01/22 01:34:49;;;;;;;55.55;51.67;;;;;;;10.04;47.49;99442.44;4423254;32;33770;-83
2021/01/22 01:37:16;;;;;;;55.15;51.35;;;;;;;10.18;47.85;99450.66;4435025;32;33788;-83
2021/01/22 01:39:43;;;;;;;54.92;50.83;;;;;;;10.31;47.18;99440.62;4409412;32;34168;-85
2021/01/22 01:42:11;;;;;;;56.90;52.47;;;;;;;10.09;48.14;99443.13;4422143;32;33572;-85
2021/01/22 01:44:38;;;;;;;56.05;51.78;;;;;;;10.07;48.20;99436.28;4409159;32;35431;-84
2021/01/22 01:47:05;;;;;;;56.03;51.75;;;;;;;10.25;47.60;99427.84;4417447;32;34746;-85
2021/01/22 01:49:33;;;;;;;55.97;51.83;;;;;;;10.13;47.08;99423.03;4420763;32;34700;-84
2021/01/22 01:52:00;;;;;;;53.90;50.20;;;;;;;11.19;44.19;99415.78;4418050;32;32964;-84
2021/01/22 01:54:27;;;;;;;54.70;50.88;;;;;;;12.10;42.13;99416.50;4421909;32;33351;-85
2021/01/22 01:56:55;;;;;;;54.38;50.30;;;;;;;12.44;40.91;99415.06;4409516;32;33750;-85
2021/01/22 01:59:22;;;;;;;54.67;50.88;;;;;;;12.41;40.92;99409.97;4434652;32;33724;-83
2021/01/22 02:01:50;;;;;;;55.40;51.30;;;;;;;12.90;39.73;99417.41;4421774;32;33993;-84
2021/01/22 02:04:18;;;;;;;54.38;50.60;;;;;;;12.80;39.81;99415.19;4434082;32;34805;-84
2021/01/22 02:06:45;;;;;;;54.97;50.97;;;;;;;12.93;39.68;99412.00;4409307;32;35025;-84
2021/01/22 02:09:12;;;;;;;55.42;51.53;;;;;;;10.62;44.93;99416.16;4434390;32;33830;-85
2021/01/22 02:11:40;;;;;;;54.47;50.63;;;;;;;11.58;42.87;99417.72;4422883;32;34240;-85
2021/01/22 02:14:07;;;;;;;54.70;50.83;;;;;;;11.70;43.29;99416.38;4408889;32;34726;-85
2021/01/22 02:16:35;;;;;;;54.78;50.95;;;;;;;10.98;45.13;99410.47;4408951;32;34480;-85
2021/01/22 02:19:09;;;;;;;54.47;50.65;;;;;;;10.79;45.49;99405.09;4421499;32;34641;-86
2021/01/22 02:21:37;;;;;;;56.08;51.85;;;;;;;11.08;44.69;99394.50;4421589;32;33264;-84
2021/01/22 02:24:13;;;;;;;54.95;50.88;;;;;;;10.78;44.99;99405.16;4423003;32;33906;-84
2021/01/22 02:26:43;;;;;;;54.15;50.38;;;;;;;10.38;45.78;99398.78;4421952;32;34537;-84
2021/01/22 02:29:11;;;;;;;54.50;50.87;;;;;;;10.02;46.71;99407.78;4422725;32;34522;-85
2021/01/22 02:31:41;;;;;;;53.78;49.97;;;;;;;11.70;42.60;99398.97;4409047;32;34469;-84
2021/01/22 02:34:10;;;;;;;53.75;49.88;;;;;;;12.02;42.04;99396.78;4421341;32;35443;-84
2021/01/22 02:36:41;;;;;;;54.83;50.58;;;;;;;12.09;42.25;99400.00;4434074;32;33877;-84
2021/01/22 02:39:10;;;;;;;54.25;50.30;;;;;;;12.02;42.03;99396.78;4421653;32;35154;-85
2021/01/22 02:41:40;;;;;;;53.67;50.28;;;;;;;12.05;42.84;99393.22;4434300;32;32991;-84
2021/01/22 02:44:08;;;;;;;53.08;49.55;;;;;;;13.05;41.22;99382.66;4421547;32;34512;-84
2021/01/22 02:46:36;;;;;;;54.03;50.30;;;;;;;12.03;43.38;99382.84;4418957;32;34762;-85
2021/01/22 02:49:04;;;;;;;53.00;49.42;;;;;;;12.74;42.04;99398.91;4414511;32;35234;-85
2021/01/22 02:51:31;;;;;;;54.05;50.40;;;;;;;12.41;42.59;99387.28;4408923;32;34268;-85
2021/01/22 02:53:58;;;;;;;53.50;49.80;;;;;;;11.73;44.37;99379.72;4417444;32;33547;-85
2021/01/22 02:56:31;;;;;;;53.90;50.12;;;;;;;11.40;45.74;99387.16;4422766;32;33849;-85
2021/01/22 02:59:37;;;;;;;52.75;49.10;;;;;;;12.32;43.00;99372.03;4408870;32;35383;-83
2021/01/22 03:02:16;;;;;;;53.53;49.42;;;;;;;12.78;41.94;99369.97;4415233;32;33109;-85
2021/01/22 03:04:43;;;;;;;53.85;50.33;;;;;;;13.23;40.79;99362.66;4439186;32;33733;-84
2021/01/22 03:07:14;;;;;;;53.90;50.25;;;;;;;12.79;41.68;99360.34;4424604;32;35155;-83
2021/01/22 03:09:44;;;;;;;53.47;49.78;;;;;;;12.29;42.83;99364.34;4421351;32;33631;-85
2021/01/22 03:12:12;;;;;;;54.55;50.58;;;;;;;12.91;41.13;99361.53;4434439;32;33260;-85
2021/01/22 03:14:40;;;;;;;52.60;49.25;;;;;;;12.94;41.38;99353.56;4434453;32;34776;-85
2021/01/22 03:17:08;;;;;;;54.13;50.47;;;;;;;13.69;39.64;99357.81;4421463;32;34873;-85
2021/01/22 03:19:46;;;;;;;52.90;49.60;;;;;;;13.49;40.05;99353.53;4421554;32;34456;-85
2021/01/22 03:22:14;;;;;;;53.42;49.97;;;;;;;12.87;41.37;99353.03;4434195;32;34415;-86
2021/01/22 03:24:41;;;;;;;53.30;49.65;;;;;;;12.90;41.35;99352.03;4409364;32;180003;-85
2021/01/22 03:27:09;;;;;;;53.30;49.92;;;;;;;13.02;40.98;99351.44;4422108;32;33979;-84
2021/01/22 03:29:36;;;;;;;53.85;50.22;;;;;;;12.87;41.27;99350.41;4408704;32;33677;-84
2021/01/22 03:32:05;;;;;;;53.92;50.03;;;;;;;13.70;38.97;99353.41;4408564;32;33332;-84
2021/01/22 03:34:32;;;;;;;53.25;49.85;;;;;;;13.49;39.45;99350.94;4421547;32;33520;-85
2021/01/22 03:37:03;;;;;;;53.08;49.47;;;;;;;13.39;40.02;99357.56;4433806;32;33734;-85
2021/01/22 03:39:34;;;;;;;53.35;49.85;;;;;;;13.28;40.04;99351.94;4408502;32;35583;-85
2021/01/22 03:42:04;;;;;;;55.00;51.22;;;;;;;13.66;39.19;99342.25;4409332;32;33690;-84
2021/01/22 03:44:32;;;;;;;56.30;52.42;;;;;;;13.14;40.01;99345.63;4420834;32;32906;-84
2021/01/22 03:46:59;;;;;;;54.72;51.08;;;;;;;12.48;41.37;99340.84;4433068;32;34816;-85
2021/01/22 03:49:26;;;;;;;55.97;52.08;;;;;;;11.50;43.74;99334.56;4420867;32;34506;-84
2021/01/22 03:51:53;;;;;;;53.78;50.20;;;;;;;12.03;42.49;99340.19;4422256;32;33559;-85
2021/01/22 03:54:21;;;;;;;53.50;50.05;;;;;;;12.72;40.67;99336.25;4421142;32;34557;-85
2021/01/22 03:56:48;;;;;;;53.83;50.30;;;;;;;13.08;40.47;99332.00;4433836;32;33583;-84
2021/01/22 03:59:15;;;;;;;53.53;49.90;;;;;;;12.93;40.86;99334.41;4408410;32;33491;-84
2021/01/22 04:01:42;;;;;;;53.97;50.47;;;;;;;13.29;40.04;99333.56;4421167;32;32757;-86
2021/01/22 04:04:09;;;;;;;54.13;50.35;;;;;;;13.23;39.97;99333.00;4421006;32;35611;-85
2021/01/22 04:06:38;;;;;;;56.85;52.30;;;;;;;13.53;39.42;99326.31;4433660;32;34532;-85
2021/01/22 04:09:05;;;;;;;57.50;53.20;;;;;;;13.72;38.78;99327.16;4421848;32;34143;-85
2021/01/22 04:11:33;;;;;;;56.83;52.75;;;;;;;12.66;41.05;99326.09;4408143;32;33696;-85
2021/01/22 04:14:00;;;;;;;55.20;51.28;;;;;;;12.75;40.87;99325.69;4421337;32;34816;-85
2021/01/22 04:16:27;;;;;;;56.33;52.42;;;;;;;13.01;40.23;99324.44;4421040;32;34464;-84
2021/01/22 04:18:55;;;;;;;56.08;52.03;;;;;;;12.35;41.81;99320.50;4422769;32;34040;-83
2021/01/22 04:21:22;;;;;;;55.88;51.88;;;;;;;12.03;42.30;99324.53;4424138;32;35730;-84
2021/01/22 04:23:49;;;;;;;55.25;51.35;;;;;;;12.34;41.99;99313.56;4437687;32;35148;-84
2021/01/22 04:26:17;;;;;;;54.25;50.55;;;;;;;12.49;42.09;99305.97;4421070;32;34975;-85
2021/01/22 04:28:44;;;;;;;55.33;51.53;;;;;;;12.42;42.07;99314.97;4433236;32;33173;-85
2021/01/22 04:31:11;;;;;;;54.53;51.03;;;;;;;12.65;41.35;99317.41;4433071;32;33529;-86
2021/01/22 04:33:38;;;;;;;54.85;51.05;;;;;;;12.79;41.17;99315.91;4433369;32;33602;-84
2021/01/22 04:36:06;;;;;;;57.08;53.10;;;;;;;12.11;43.15;99303.31;4420276;32;33934;-85
2021/01/22 04:38:33;;;;;;;52.58;49.17;;;;;;;11.80;43.94;99302.00;4420345;32;34383;-85
2021/01/22 04:41:00;;;;;;;53.95;50.05;;;;;;;10.91;46.58;99299.53;4433250;32;33583;-84
2021/01/22 04:43:28;;;;;;;52.97;49.40;;;;;;;10.95;46.37;99288.06;4407952;32;34726;-84
2021/01/22 04:45:55;;;;;;;53.38;49.75;;;;;;;11.06;45.68;99292.00;4421531;32;33973;-86
2021/01/22 04:48:22;;;;;;;54.28;50.63;;;;;;;11.07;45.20;99298.94;4415149;32;34011;-85
2021/01/22 04:50:50;;;;;;;54.20;50.67;;;;;;;12.11;42.44;99287.63;4420239;32;33292;-85
2021/01/22 04:53:20;;;;;;;53.45;49.83;;;;;;;12.75;40.93;99291.69;4420085;32;35757;-85
2021/01/22 04:55:48;;;;;;;54.13;50.65;;;;;;;12.52;41.14;99277.94;4433136;32;33587;-85
2021/01/22 04:58:17;;;;;;;54.10;50.45;;;;;;;12.84;40.40;99283.41;4433533;32;33989;-84
2021/01/22 05:00:44;;;;;;;54.75;50.85;;;;;;;13.02;39.89;99281.66;4422284;32;33862;-84
2021/01/22 05:03:12;;;;;;;54.05;50.45;;;;;;;12.90;40.40;99286.66;4422246;32;35366;-84
2021/01/22 05:05:39;;;;;;;53.72;50.08;;;;;;;12.85;40.44;99285.09;4422094;32;33537;-85
2021/01/22 05:08:07;;;;;;;53.22;49.83;;;;;;;13.20;39.76;99285.16;4421991;32;34798;-84
2021/01/22 05:10:34;;;;;;;54.63;51.03;;;;;;;13.49;39.13;99277.66;4422198;32;33428;-85
2021/01/22 05:13:02;;;;;;;54.92;51.30;;;;;;;12.93;40.17;99271.66;4409613;32;34655;-85
2021/01/22 05:15:30;;;;;;;52.58;49.10;;;;;;;13.78;38.62;99267.47;4409869;32;33904;-85
2021/01/22 05:17:58;;;;;;;54.13;50.53;;;;;;;13.46;39.49;99269.97;4409634;32;34219;-84
2021/01/22 05:20:27;;;;;;;53.30;50.00;;;;;;;14.19;37.72;99271.47;4409283;32;34088;-85
2021/01/22 05:22:55;;;;;;;52.65;49.33;;;;;;;14.19;36.76;99264.44;4422559;32;33462;-85
2021/01/22 05:25:23;;;;;;;53.08;49.70;;;;;;;13.50;38.35;99274.12;4434943;32;33608;-85
2021/01/22 05:27:51;;;;;;;52.67;49.28;;;;;;;13.06;39.59;99279.75;4422428;32;33920;-86
2021/01/22 05:30:19;;;;;;;53.15;49.83;;;;;;;12.95;40.13;99272.44;4434809;32;34876;-84
2021/01/22 05:32:47;;;;;;;53.03;49.38;;;;;;;13.76;38.65;99274.56;4422244;32;35477;-86
2021/01/22 05:35:26;;;;;;;53.25;49.95;;;;;;;14.10;38.18;99271.97;4422275;32;33289;-84
2021/01/22 05:37:54;;;;;;;52.00;48.78;;;;;;;14.28;37.87;99284.09;4423854;32;33774;-86
2021/01/22 05:40:22;;;;;;;53.92;50.53;;;;;;;14.14;38.19;99279.56;4435248;32;33341;-85
2021/01/22 05:42:51;;;;;;;52.60;49.30;;;;;;;14.33;38.16;99275.97;4409840;32;35629;-85
2021/01/22 05:45:38;;;;;;;52.53;48.85;;;;;;;13.91;38.70;99279.94;4397424;32;34686;-84
2021/01/22 05:48:20;;;;;;;52.13;48.90;;;;;;;14.14;38.20;99276.09;4416624;32;33966;-86
2021/01/22 05:50:55;;;;;;;52.65;49.20;;;;;;;14.13;38.04;99277.91;4423259;32;34306;-85
2021/01/22 05:53:23;;;;;;;52.13;49.05;;;;;;;14.34;37.45;99272.41;4409488;32;34703;-85
2021/01/22 05:56:05;;;;;;;52.85;49.38;;;;;;;13.93;38.39;99270.22;4421861;32;35759;-85
2021/01/22 05:58:33;;;;;;;52.80;49.42;;;;;;;13.93;38.43;99284.16;4434704;32;34491;-85
2021/01/22 06:01:15;;;;;;;52.40;48.75;;;;;;;13.68;39.12;99281.94;4434347;32;33954;-86
2021/01/22 06:03:45;;;;;;;53.22;49.85;;;;;;;13.90;38.67;99284.31;4409274;32;33735;-85
2021/01/22 06:06:13;;;;;;;55.58;51.88;;;;;;;14.25;37.92;99278.16;4421845;32;33766;-85
2021/01/22 06:08:52;;;;;;;54.30;50.38;;;;;;;13.61;39.30;99267.50;4421909;32;33518;-85
2021/01/22 06:11:24;;;;;;;53.47;49.97;;;;;;;12.81;41.24;99261.78;4423116;32;34443;-85
2021/01/22 06:13:54;;;;;;;54.20;50.50;;;;;;;13.65;39.45;99259.44;4409101;32;34278;-85
2021/01/22 06:16:27;;;;;;;52.95;49.58;;;;;;;13.90;38.81;99266.00;4422013;32;33743;-85
2021/01/22 06:19:00;;;;;;;53.00;49.60;;;;;;;14.12;38.36;99268.34;4421808;32;33399;-85
2021/01/22 06:21:30;;;;;;;54.95;50.78;;;;;;;13.92;38.87;99264.16;4434155;32;33391;-85
2021/01/22 06:24:01;;;;;;;54.60;51.03;;;;;;;13.56;39.58;99269.50;4422067;32;33662;-84
2021/01/22 06:26:30;;;;;;;52.42;49.13;;;;;;;13.88;38.98;99274.84;4409669;32;32912;-86
2021/01/22 06:29:03;;;;;;;52.83;49.55;;;;;;;14.16;38.33;99280.34;4421809;32;33634;-86
2021/01/22 06:31:34;;;;;;;52.83;49.38;;;;;;;14.35;38.20;99274.94;4409182;32;33346;-86
2021/01/22 06:34:02;;;;;;;55.33;51.47;;;;;;;14.45;37.99;99274.44;4409161;32;34065;-86
2021/01/22 06:36:31;;;;;;;53.35;50.03;;;;;;;14.64;37.67;99276.97;4421617;32;33880;-85
2021/01/22 06:39:04;;;;;;;54.97;51.17;;;;;;;14.12;38.77;99277.94;4434110;32;33758;-86
2021/01/22 06:41:43;;;;;;;53.63;50.22;;;;;;;13.97;39.07;99272.62;4433433;32;33395;-86
2021/01/22 06:44:11;;;;;;;52.53;49.13;;;;;;;13.68;39.55;99268.87;4421953;32;33645;-85
2021/01/22 06:46:41;;;;;;;52.67;49.47;;;;;;;14.12;38.65;99277.94;4396946;32;33891;-84
2021/01/22 06:49:09;;;;;;;53.33;49.78;;;;;;;14.00;38.93;99280.31;4422957;32;33971;-85
2021/01/22 06:51:36;;;;;;;54.53;50.53;;;;;;;14.21;38.60;99277.47;4423534;32;33846;-85
2021/01/22 06:54:08;;;;;;;54.80;51.15;;;;;;;14.36;38.42;99275.81;4421889;32;34752;-85
2021/01/22 06:56:51;;;;;;;54.60;51.20;;;;;;;14.13;39.02;99271.78;4421401;32;34074;-85
2021/01/22 06:59:18;;;;;;;53.92;50.55;;;;;;;13.64;39.91;99273.44;4421762;32;33850;-84
2021/01/22 07:01:47;;;;;;;54.25;50.72;;;;;;;14.22;38.93;99275.72;4422205;32;34284;-85
2021/01/22 07:04:33;;;;;;;55.38;51.60;;;;;;;14.08;39.13;99272.06;4410202;32;35635;-85
2021/01/22 07:07:03;;;;;;;54.83;51.15;;;;;;;13.81;39.80;99266.47;4424071;32;34710;-85
2021/01/22 07:09:41;;;;;;;53.23;49.80;;;;;;;14.05;39.24;99266.12;4433480;32;33856;-85
2021/01/22 07:12:10;;;;;;;54.28;50.97;;;;;;;13.90;39.58;99263.38;4420882;32;33438;-86
2021/01/22 07:14:42;;;;;;;54.10;50.40;;;;;;;14.16;38.98;99269.00;4420895;32;34315;-84
2021/01/22 07:17:18;;;;;;;53.70;50.30;;;;;;;14.91;37.21;99266.69;4408171;32;34014;-84
2021/01/22 07:20:06;;;;;;;54.97;51.28;;;;;;;15.36;36.29;99270.22;4432901;32;34705;-82
2021/01/22 07:22:45;;;;;;;59.75;55.15;;;;;;;15.46;36.15;99262.69;4421956;32;34228;-86
2021/01/22 07:25:12;;;;;;;58.67;54.55;;;;;;;15.65;35.82;99259.81;4433789;32;33434;-84
2021/01/22 07:27:44;;;;;;;67.28;62.00;;;;;;;15.65;35.90;99262.44;4421761;32;34016;-86
2021/01/22 07:30:13;;;;;;;57.35;53.33;;;;;;;15.82;35.65;99264.09;4433683;32;33946;-85
2021/01/22 07:32:41;;;;;;;56.63;53.15;;;;;;;16.06;35.24;99255.66;4420607;32;33774;-85
2021/01/22 07:35:18;;;;;;;54.78;51.08;;;;;;;15.75;36.12;99256.63;4420447;32;33516;-84
2021/01/22 07:37:46;;;;;;;55.17;51.55;;;;;;;15.13;37.32;99252.34;4420589;32;34460;-84
2021/01/22 07:40:14;;;;;;;54.70;51.03;;;;;;;15.79;36.14;99255.50;4421269;32;34817;-86
2021/01/22 07:42:42;;;;;;;55.17;51.55;;;;;;;15.62;36.49;99262.63;4422086;32;34650;-86
2021/01/22 07:45:17;;;;;;;54.75;51.03;;;;;;;16.27;35.07;99261.34;4428397;32;33873;-85
2021/01/22 07:47:47;;;;;;;55.28;51.55;;;;;;;16.35;35.03;99258.22;4414340;32;34578;-84
2021/01/22 07:50:17;;;;;;;55.28;51.88;;;;;;;16.57;34.80;99265.62;4411605;32;33482;-84
2021/01/22 07:52:49;;;;;;;57.70;53.58;;;;;;;16.61;34.69;99261.03;4399397;32;34615;-85
2021/01/22 07:55:18;;;;;;;56.92;53.20;;;;;;;16.62;34.75;99266.19;4410721;32;33824;-85
2021/01/22 07:57:47;;;;;;;93.70;84.32;;;;;;;16.81;34.49;99275.53;4398516;32;35383;-84
2021/01/22 08:00:15;;;;;;;58.47;54.50;;;;;;;16.87;34.44;99273.34;4380205;32;35574;-84
2021/01/22 08:02:56;;;;;;;56.25;52.55;;;;;;;16.83;34.69;99281.50;4392659;32;32299;-83
2021/01/22 08:05:36;;;;;;;55.63;52.00;;;;;;;16.89;34.65;99265.34;4406203;32;34405;-85
2021/01/22 08:08:16;;;;;;;54.33;50.73;;;;;;;16.65;35.00;99273.03;4405332;32;34341;-87
2021/01/22 08:10:44;;;;;;;54.88;51.47;;;;;;;16.23;35.75;99275.63;4406281;32;33730;-85
2021/01/22 08:13:11;;;;;;;55.47;51.92;;;;;;;16.42;35.63;99266.59;4405542;32;32085;-83
2021/01/22 08:15:38;;;;;;;55.03;51.45;;;;;;;16.67;35.44;99279.03;4392804;32;34459;-86
2021/01/22 08:18:08;;;;;;;54.90;51.30;;;;;;;16.73;35.14;99285.69;4407047;32;33869;-83
2021/01/22 08:20:51;;;;;;;55.08;51.47;;;;;;;17.21;34.19;99269.50;4393741;32;34088;-86
2021/01/22 08:23:31;;;;;;;54.22;50.63;;;;;;;17.20;34.16;99271.25;4393424;32;34473;-86
2021/01/22 08:26:01;;;;;;;53.00;49.78;;;;;;;17.11;34.51;99274.50;4382091;32;34045;-84
2021/01/22 08:28:30;;;;;;;55.95;52.20;;;;;;;16.95;34.77;99265.00;4408481;32;34345;-85
2021/01/22 08:30:57;;;;;;;53.53;50.03;;;;;;;17.23;34.46;99270.22;4408834;32;33785;-84
2021/01/22 08:33:25;;;;;;;52.67;49.47;;;;;;;17.20;34.36;99268.63;4397409;32;34838;-85
2021/01/22 08:35:53;;;;;;;90.75;81.22;;;;;;;16.50;35.65;99257.28;4410024;32;33537;-86
2021/01/22 08:38:20;;;;;;;54.05;50.33;;;;;;;16.48;35.75;99256.53;4409786;32;34074;-84
2021/01/22 08:40:48;;;;;;;55.35;51.85;;;;;;;17.19;34.37;99262.53;4396833;32;34676;-85
2021/01/22 08:43:16;;;;;;;53.22;50.00;;;;;;;16.18;35.94;99265.41;4409350;32;33393;-85
2021/01/22 08:46:23;;;;;;;52.92;49.72;;;;;;;16.23;36.29;99261.63;4410302;32;33913;-85
2021/01/22 08:48:51;;;;;;;52.05;48.75;;;;;;;15.91;36.58;99264.47;4350628;32;33437;-84
2021/01/22 08:51:28;;;;;;;52.15;48.95;;;;;;;16.73;35.21;99254.13;4350842;32;33588;-86
2021/01/22 08:53:57;;;;;;;55.05;51.58;;;;;;;17.28;34.20;99255.78;4351096;32;34210;-86
2021/01/22 08:56:24;;;;;;;53.30;49.85;;;;;;;17.16;34.24;99246.94;4350857;32;34257;-85
2021/01/22 08:59:01;;;;;;;52.42;49.22;;;;;;;17.23;34.07;99252.66;4350924;32;34858;-86
2021/01/22 09:01:58;;;;;;;54.83;51.25;;;;;;;17.26;33.93;99244.53;4338543;32;34261;-86
2021/01/22 09:04:31;;;;;;;53.63;50.30;;;;;;;17.75;33.17;99250.06;4351440;32;33285;-86
2021/01/22 09:07:00;;;;;;;61.58;57.05;;;;;;;18.09;32.46;99250.41;4350623;32;33387;-86
2021/01/22 09:09:35;;;;;;;72.70;66.43;;;;;;;18.18;32.39;99257.66;4350839;32;34669;-85
2021/01/22 09:12:32;;;;;;;64.90;59.35;;;;;;;18.70;31.51;99256.56;4350647;32;34373;-85
2021/01/22 09:15:07;;;;;;;53.50;50.17;;;;;;;18.29;32.16;99252.47;4338858;32;35134;-85
2021/01/22 09:17:40;;;;;;;53.13;49.83;;;;;;;18.09;32.44;99245.13;4350733;32;34426;-85
2021/01/22 09:20:12;;;;;;;52.55;49.22;;;;;;;18.20;32.26;99232.00;4377550;32;34691;-87
2021/01/22 09:22:41;;;;;;;53.10;49.90;;;;;;;17.84;33.01;99252.06;4409234;32;32417;-85
2021/01/22 09:25:11;;;;;;;52.13;49.08;;;;;;;17.72;33.14;99245.84;4396858;32;34145;-86
2021/01/22 09:27:39;;;;;;;52.03;48.92;;;;;;;17.27;33.76;99256.75;4409881;32;34485;-85
2021/01/22 09:30:09;;;;;;;51.40;48.20;;;;;;;15.93;36.40;99255.53;4409238;32;33627;-85
2021/01/22 09:32:37;;;;;;;51.75;48.42;;;;;;;16.09;36.31;99246.72;4409088;32;33714;-86
2021/01/22 09:35:06;;;;;;;51.75;48.42;;;;;;;16.48;35.68;99243.38;4410550;32;33499;-87
2021/01/22 09:37:33;;;;;;;51.28;48.30;;;;;;;16.85;34.74;99232.28;4396662;32;33970;-84
2021/01/22 09:40:03;;;;;;;51.83;48.38;;;;;;;17.63;33.47;99228.88;4409339;32;33503;-87
2021/01/22 09:42:31;;;;;;;52.75;49.55;;;;;;;17.55;33.72;99227.72;4409209;32;34759;-85
2021/01/22 09:44:58;;;;;;;52.47;48.97;;;;;;;17.38;34.03;99219.19;4393586;32;33294;-87
2021/01/22 09:47:28;;;;;;;53.83;50.53;;;;;;;17.81;33.34;99216.22;4406885;32;33776;-87
2021/01/22 09:49:55;;;;;;;52.40;48.83;;;;;;;18.09;32.85;99214.31;4408141;32;33887;-83
2021/01/22 09:52:23;;;;;;;52.95;49.58;;;;;;;18.43;32.22;99213.75;4406683;32;33166;-84
2021/01/22 09:54:50;;;;;;;53.72;50.30;;;;;;;18.83;31.44;99213.47;4406005;32;33660;-86
2021/01/22 09:57:17;;;;;;;52.70;49.60;;;;;;;18.63;31.73;99207.84;4393356;32;33667;-84
2021/01/22 09:59:45;;;;;;;56.03;52.45;;;;;;;18.50;31.95;99207.06;4393634;32;35049;-84
2021/01/22 10:02:12;;;;;;;54.15;50.38;;;;;;;18.69;31.63;99194.22;4407753;32;34853;-87
2021/01/22 10:04:40;;;;;;;51.05;47.95;;;;;;;18.42;32.15;99189.12;4393692;32;34279;-85
2021/01/22 10:07:07;;;;;;;51.70;48.60;;;;;;;17.32;34.08;99191.47;4392991;32;34572;-86
2021/01/22 10:09:36;;;;;;;52.62;49.55;;;;;;;18.55;32.06;99175.91;4393110;32;36246;-86
2021/01/22 10:12:06;;;;;;;53.13;49.58;;;;;;;17.52;33.65;99182.22;4405554;32;34656;-86
2021/01/22 10:14:34;;;;;;;57.67;53.53;;;;;;;17.62;33.89;99184.22;4393125;32;33985;-86
2021/01/22 10:17:02;;;;;;;55.30;51.45;;;;;;;17.98;33.29;99177.34;4393254;32;33615;-87
2021/01/22 10:19:35;;;;;;;56.10;52.42;;;;;;;18.49;32.31;99181.62;4381714;32;35772;-87
2021/01/22 10:22:04;;;;;;;55.38;51.88;;;;;;;18.05;33.00;99175.12;4381070;32;34041;-86
2021/01/22 10:24:31;;;;;;;52.85;49.20;;;;;;;18.71;32.04;99183.53;4394439;32;34792;-86
2021/01/22 10:26:59;;;;;;;65.78;60.53;;;;;;;18.75;31.94;99176.25;4397165;32;34636;-86
2021/01/22 10:29:26;;;;;;;58.15;54.10;;;;;;;19.26;31.07;99181.22;4383585;32;34331;-86
2021/01/22 10:31:54;;;;;;;54.78;51.22;;;;;;;19.29;30.94;99173.09;4406352;32;34634;-87
2021/01/22 10:34:21;;;;;;;58.90;55.15;;;;;;;19.55;30.59;99169.41;4393025;32;33690;-82
2021/01/22 10:36:49;;;;;;;51.88;48.63;;;;;;;17.95;33.17;99164.38;4393373;32;34833;-85
2021/01/22 10:39:16;;;;;;;52.60;49.30;;;;;;;18.59;32.02;99169.44;4380619;32;35726;-86
2021/01/22 10:41:43;;;;;;;52.72;49.38;;;;;;;18.08;33.11;99167.84;4381540;32;34850;-87
2021/01/22 10:44:11;;;;;;;53.87;50.72;;;;;;;16.97;35.16;99164.91;4393209;32;33311;-85
2021/01/22 10:46:39;;;;;;;55.55;52.10;;;;;;;17.46;34.42;99160.72;4393087;32;35675;-86
2021/01/22 10:49:07;;;;;;;51.78;48.25;;;;;;;16.93;35.51;99164.25;4392766;32;34187;-85
2021/01/22 10:51:35;;;;;;;52.15;49.05;;;;;;;17.31;34.73;99155.56;4380710;32;35873;-83
2021/01/22 10:54:02;;;;;;;52.15;48.85;;;;;;;16.60;36.01;99160.22;4405801;32;33408;-84
2021/01/22 10:56:37;;;;;;;53.53;50.33;;;;;;;17.49;34.59;99149.97;4392191;32;35042;-87
2021/01/22 10:59:18;;;;;;;55.70;51.58;;;;;;;16.97;35.47;99151.75;4393985;32;34277;-86
2021/01/22 11:02:07;;;;;;;55.08;51.53;;;;;;;17.67;34.29;99132.91;4395577;32;34475;-86
2021/01/22 11:04:43;;;;;;;54.83;51.60;;;;;;;17.72;34.05;99143.09;4394079;32;33923;-85
2021/01/22 11:07:25;;;;;;;54.78;51.47;;;;;;;17.71;34.27;99141.44;4383172;32;32982;-86
2021/01/22 11:09:55;;;;;;;52.83;49.45;;;;;;;17.23;35.10;99139.47;4406064;32;33805;-85
2021/01/22 11:12:22;;;;;;;53.10;49.58;;;;;;;17.27;34.92;99137.44;4393233;32;34927;-85
2021/01/22 11:14:50;;;;;;;52.50;49.03;;;;;;;15.35;38.86;99134.69;4381517;32;35736;-85
2021/01/22 11:17:17;;;;;;;51.72;48.53;;;;;;;16.98;35.58;99129.75;4406149;32;33215;-86
2021/01/22 11:19:45;;;;;;;52.62;49.20;;;;;;;17.28;35.12;99121.53;4408277;32;33660;-85
2021/01/22 11:22:12;;;;;;;52.20;48.87;;;;;;;16.81;36.10;99115.06;4427994;32;33826;-83
2021/01/22 11:24:39;;;;;;;53.00;49.83;;;;;;;17.05;35.84;99112.59;4409893;32;33093;-84
2021/01/22 11:27:07;;;;;;;53.80;50.17;;;;;;;17.44;34.91;99107.31;4405420;32;34143;-83
2021/01/22 11:29:35;;;;;;;53.72;50.42;;;;;;;18.14;33.68;99106.75;4405665;32;33724;-86